Time;durP1;ratioP1;P1;durP2;ratioP2;P2;SDS_P1;SDS_P2;PMS_P1;PMS_P2;Temp;Humidity;BMP_temperature;BMP_pressure;BME280_temperature;BME280_humidity;BME280_pressure;Samples;Min_cycle;Max_cycle;Signal;HPM_P1;HPM_P2
2023/03/25 00:02:19;;;;;;;9.30;0.63;;;;;;;26.93;36.93;97531.28;7396257;19;20030;-82
2023/03/25 00:04:49;;;;;;;1.33;0.38;;;;;;;26.84;37.10;97535.16;7394875;19;20017;-82
2023/03/25 00:07:17;;;;;;;2.13;0.77;;;;;;;26.82;37.37;97528.59;7392852;19;20069;-82
2023/03/25 00:09:43;;;;;;;0.15;0.15;;;;;;;26.88;37.36;97535.34;7392037;19;20015;-82
2023/03/25 00:12:09;;;;;;;0.25;0.20;;;;;;;26.84;37.45;97546.59;7390749;19;20026;-82
2023/03/25 00:14:36;;;;;;;0.10;0.10;;;;;;;26.69;37.20;97547.28;7393844;19;20066;-82
2023/03/25 00:17:02;;;;;;;0.63;0.35;;;;;;;26.79;37.34;97533.50;7394361;19;20022;-82
2023/03/25 00:19:28;;;;;;;0.95;0.82;;;;;;;26.82;37.43;97543.63;7391659;19;20022;-82
2023/03/25 00:21:54;;;;;;;0.40;0.40;;;;;;;26.80;37.49;97552.13;7391574;19;20583;-82
2023/03/25 00:24:21;;;;;;;0.20;0.20;;;;;;;26.82;38.04;97549.34;7393397;19;20528;-82
2023/03/25 00:26:47;;;;;;;0.10;0.10;;;;;;;26.75;37.48;97543.97;7390986;19;20416;-82
2023/03/25 00:29:15;;;;;;;0.20;0.20;;;;;;;26.43;38.04;97546.03;7391156;19;20747;-82
2023/03/25 00:31:42;;;;;;;9.80;0.70;;;;;;;26.34;38.25;97547.03;7389869;19;20018;-82
2023/03/25 00:34:08;;;;;;;0.32;0.30;;;;;;;26.42;38.07;97541.72;7394676;19;20026;-83
2023/03/25 00:36:36;;;;;;;0.13;0.13;;;;;;;26.43;38.05;97548.88;7395755;19;20018;-82
2023/03/25 00:39:04;;;;;;;0.20;0.20;;;;;;;26.40;38.03;97541.59;7392672;19;20026;-82
2023/03/25 00:41:30;;;;;;;0.13;0.13;;;;;;;26.29;38.04;97551.09;7390388;19;20477;-82
2023/03/25 00:43:58;;;;;;;3.70;0.60;;;;;;;25.96;38.63;97551.59;7392375;19;20379;-82
2023/03/25 00:46:26;;;;;;;0.45;0.45;;;;;;;27.02;37.42;97549.53;7388198;19;20541;-81
2023/03/25 00:48:53;;;;;;;0.57;0.40;;;;;;;27.13;37.53;97542.91;7390496;19;20006;-82
2023/03/25 00:51:21;;;;;;;0.25;0.25;;;;;;;26.98;37.38;97543.66;7394010;19;20347;-82
2023/03/25 00:53:53;;;;;;;0.28;0.28;;;;;;;26.90;37.58;97554.69;7391391;19;20015;-81
2023/03/25 00:56:21;;;;;;;0.95;0.73;;;;;;;26.94;37.28;97549.19;7391051;19;20030;-81
2023/03/25 00:58:47;;;;;;;0.20;0.20;;;;;;;26.96;37.58;97546.41;7390108;19;20375;-82
2023/03/25 01:01:16;;;;;;;0.20;0.20;;;;;;;27.20;37.08;97541.75;7391231;19;20019;-81
2023/03/25 01:03:43;;;;;;;0.32;0.32;;;;;;;27.32;37.09;97547.28;7390874;19;20018;-81
2023/03/25 01:06:14;;;;;;;3.33;0.98;;;;;;;27.37;36.74;97537.56;7392073;19;20445;-81
2023/03/25 01:08:43;;;;;;;0.10;0.10;;;;;;;27.44;36.58;97545.72;7391589;19;20014;-82
2023/03/25 01:11:20;;;;;;;0.17;0.17;;;;;;;27.49;36.45;97549.50;7391735;19;20010;-82
2023/03/25 01:13:50;;;;;;;0.52;0.52;;;;;;;27.48;36.65;97542.31;7392519;19;20049;-82
2023/03/25 01:16:16;;;;;;;0.10;0.10;;;;;;;27.34;36.18;97550.25;7391208;19;20022;-81
2023/03/25 01:18:42;;;;;;;1.17;0.38;;;;;;;27.39;36.51;97551.94;7391133;19;20019;-81
2023/03/25 01:21:08;;;;;;;0.20;0.20;;;;;;;27.51;36.53;97552.44;7389018;19;20022;-81
2023/03/25 01:23:34;;;;;;;0.77;0.73;;;;;;;27.59;36.28;97558.53;7389809;19;20480;-82
2023/03/25 01:26:01;;;;;;;0.57;0.57;;;;;;;27.52;36.61;97557.53;7389192;19;20018;-81
2023/03/25 01:28:27;;;;;;;0.40;0.40;;;;;;;27.34;36.56;97561.69;7391125;19;20035;-82
2023/03/25 01:31:04;;;;;;;0.13;0.13;;;;;;;27.19;36.43;97568.16;7390808;19;20038;-82
2023/03/25 01:33:31;;;;;;;0.13;0.13;;;;;;;27.33;36.05;97565.94;7390409;19;20022;-81
2023/03/25 01:36:01;;;;;;;0.28;0.28;;;;;;;27.30;36.44;97555.78;7390968;19;20014;-81
2023/03/25 01:38:29;;;;;;;6.10;0.75;;;;;;;27.36;36.21;97570.38;7389467;19;20074;-82
2023/03/25 01:40:56;;;;;;;1.75;0.30;;;;;;;27.23;36.11;97565.47;7389768;19;20010;-81
2023/03/25 01:43:23;;;;;;;1.20;0.50;;;;;;;27.44;36.35;97553.59;7395535;19;20051;-81
2023/03/25 01:45:50;;;;;;;12.55;0.93;;;;;;;26.81;36.17;97564.28;7397237;19;20015;-80
2023/03/25 01:48:24;;;;;;;0.40;0.40;;;;;;;27.42;35.67;97550.63;7396510;19;20040;-81
2023/03/25 01:51:24;;;;;;;0.20;0.20;;;;;;;27.45;36.04;97561.50;7397951;19;20018;-81
2023/03/25 01:53:54;;;;;;;0.40;0.40;;;;;;;27.49;35.74;97558.09;7397910;19;20043;-81
2023/03/25 01:56:25;;;;;;;0.20;0.20;;;;;;;27.41;36.01;97563.44;7396290;19;20077;-81
2023/03/25 01:58:51;;;;;;;;;;;;;;;27.37;36.14;97564.03;7395561;19;20015;-81
2023/03/25 02:01:21;;;;;;;2.90;0.22;;;;;;;27.24;36.04;97569.81;7397021;19;20741;-81
2023/03/25 02:03:52;;;;;;;0.28;0.10;;;;;;;27.33;35.70;97563.78;7398671;19;20019;-81
2023/03/25 02:06:27;;;;;;;0.28;0.28;;;;;;;27.09;36.16;97576.28;7396262;19;20014;-81
2023/03/25 02:08:57;;;;;;;1.05;0.90;;;;;;;27.25;35.96;97568.41;7394628;19;20418;-81
2023/03/25 02:11:27;;;;;;;0.20;0.20;;;;;;;27.37;36.03;97571.84;7394196;19;20029;-81
2023/03/25 02:14:01;;;;;;;0.20;0.20;;;;;;;27.49;35.72;97575.97;7396960;19;20388;-81
2023/03/25 02:16:33;;;;;;;1.05;0.50;;;;;;;27.07;36.07;97581.91;7396685;19;20034;-81
2023/03/25 02:19:25;;;;;;;2.28;0.20;;;;;;;27.07;36.27;97579.03;7395775;19;20014;-81
2023/03/25 02:22:10;;;;;;;;;;;;;;;27.13;36.42;97577.19;7397738;19;20121;-81
2023/03/25 02:24:53;;;;;;;1.23;0.43;;;;;;;27.02;36.28;97587.44;7395417;19;19919;-81
2023/03/25 02:27:32;;;;;;;0.85;0.52;;;;;;;27.16;36.42;97575.16;7393805;19;20619;-82
2023/03/25 02:30:11;;;;;;;0.13;0.13;;;;;;;27.04;36.41;97581.81;7394982;19;20018;-81
2023/03/25 02:33:05;;;;;;;0.20;0.20;;;;;;;26.94;36.39;97589.88;7397589;19;20021;-81
2023/03/25 02:35:40;;;;;;;0.57;0.22;;;;;;;26.96;36.10;97592.84;7394913;19;20358;-79
2023/03/25 02:38:44;;;;;;;0.25;0.25;;;;;;;26.94;36.08;97598.47;7394416;19;20343;-81
2023/03/25 02:41:22;;;;;;;0.10;0.10;;;;;;;26.94;36.13;97595.59;7392038;19;20048;-82
2023/03/25 02:43:58;;;;;;;0.90;0.85;;;;;;;26.98;36.18;97606.50;7394205;19;20106;-82
2023/03/25 02:46:27;;;;;;;0.15;0.15;;;;;;;27.13;36.32;97602.16;7393545;19;20007;-81
2023/03/25 02:48:53;;;;;;;0.47;0.40;;;;;;;27.18;36.42;97603.84;7394010;19;20027;-80
2023/03/25 02:51:24;;;;;;;0.20;0.20;;;;;;;27.18;36.19;97606.69;7395352;19;20034;-80
2023/03/25 02:53:52;;;;;;;0.30;0.30;;;;;;;26.96;36.29;97609.97;7395328;19;20408;-80
2023/03/25 02:56:22;;;;;;;6.82;0.32;;;;;;;27.20;35.80;97613.22;7396831;19;20026;-80
2023/03/25 02:58:50;;;;;;;0.20;0.20;;;;;;;27.13;35.85;97605.03;7395338;19;20043;-79
2023/03/25 03:01:16;;;;;;;0.20;0.20;;;;;;;27.31;36.01;97614.44;7396946;19;20082;-80
2023/03/25 03:03:43;;;;;;;0.10;0.10;;;;;;;27.24;35.68;97615.53;7395543;19;20114;-81
2023/03/25 03:06:16;;;;;;;0.30;0.25;;;;;;;27.26;36.24;97618.50;7395446;19;20382;-79
2023/03/25 03:08:50;;;;;;;0.20;0.20;;;;;;;27.39;36.05;97626.25;7396664;19;20022;-80
2023/03/25 03:11:57;;;;;;;0.75;0.73;;;;;;;27.54;35.79;97619.78;7395275;19;20019;-80
2023/03/25 03:14:45;;;;;;;3.92;0.77;;;;;;;27.55;35.98;97621.25;7393678;19;20035;-80
2023/03/25 03:17:26;;;;;;;0.10;0.10;;;;;;;27.62;35.76;97623.00;7393984;19;20030;-79
2023/03/25 03:20:32;;;;;;;0.10;0.10;;;;;;;27.67;35.51;97633.25;7393504;19;20029;-80
2023/03/25 03:23:09;;;;;;;0.10;0.10;;;;;;;27.54;35.61;97639.81;7393230;19;20026;-80
2023/03/25 03:26:01;;;;;;;5.00;0.82;;;;;;;27.32;36.12;97639.50;7393634;19;20066;-80
2023/03/25 03:28:41;;;;;;;0.10;0.10;;;;;;;27.16;35.93;97646.63;7393096;19;20014;-80
2023/03/25 03:31:50;;;;;;;0.10;0.10;;;;;;;27.45;36.10;97641.56;7393743;19;20031;-80
2023/03/25 03:34:31;;;;;;;0.10;0.10;;;;;;;27.22;36.31;97658.31;7392164;19;20018;-81
2023/03/25 03:36:58;;;;;;;;;;;;;;;27.31;35.85;97660.19;7399096;19;20022;-81
2023/03/25 03:39:37;;;;;;;0.30;0.30;;;;;;;27.28;35.77;97661.47;7394499;19;19923;-80
2023/03/25 03:42:17;;;;;;;0.20;0.20;;;;;;;26.99;36.17;97668.72;7394406;19;20384;-80
2023/03/25 03:44:50;;;;;;;0.10;0.10;;;;;;;27.12;36.31;97669.28;7396557;19;20033;-82
2023/03/25 03:47:28;;;;;;;0.17;0.17;;;;;;;27.26;36.19;97664.22;7392238;19;20027;-82
2023/03/25 03:50:03;;;;;;;0.20;0.20;;;;;;;27.26;36.10;97659.25;7393044;19;20014;-82
2023/03/25 03:52:36;;;;;;;0.20;0.20;;;;;;;26.62;36.71;97674.00;7395135;19;20018;-82
2023/03/25 03:55:09;;;;;;;0.28;0.20;;;;;;;27.36;35.77;97667.56;7398177;19;20026;-81
2023/03/25 03:57:41;;;;;;;0.10;0.10;;;;;;;27.35;35.66;97671.78;7392107;19;20011;-82
2023/03/25 04:00:24;;;;;;;1.15;0.85;;;;;;;26.95;35.96;97679.94;7393194;19;20563;-81
2023/03/25 04:02:58;;;;;;;0.20;0.20;;;;;;;26.85;36.08;97673.00;7397012;19;20015;-83
2023/03/25 04:05:29;;;;;;;0.20;0.20;;;;;;;26.84;36.08;97683.69;7391769;19;20015;-81
2023/03/25 04:08:01;;;;;;;5.93;0.32;;;;;;;26.69;36.30;97683.63;7392229;19;20019;-82
2023/03/25 04:10:57;;;;;;;0.30;0.30;;;;;;;26.63;36.20;97681.22;7392336;19;20357;-83
2023/03/25 04:13:30;;;;;;;8.88;0.73;;;;;;;26.58;36.48;97702.38;7394786;19;20084;-82
2023/03/25 04:15:59;;;;;;;0.20;0.20;;;;;;;26.60;35.95;97696.75;7392159;19;20010;-83
2023/03/25 04:18:27;;;;;;;0.20;0.20;;;;;;;26.56;35.89;97688.00;7394138;19;20335;-81
2023/03/25 04:20:56;;;;;;;5.18;0.60;;;;;;;26.38;36.31;97707.06;7393302;19;20081;-82
2023/03/25 04:23:22;;;;;;;0.55;0.22;;;;;;;26.59;35.70;97708.81;7392277;19;20441;-82
2023/03/25 04:25:54;;;;;;;0.10;0.10;;;;;;;26.67;36.11;97709.22;7392095;19;20021;-82
2023/03/25 04:28:22;;;;;;;0.30;0.30;;;;;;;26.73;35.63;97716.00;7392264;19;20022;-82
2023/03/25 04:30:54;;;;;;;0.20;0.20;;;;;;;26.51;35.97;97714.16;7393017;19;20359;-82
2023/03/25 04:33:24;;;;;;;0.45;0.30;;;;;;;26.62;35.80;97719.69;7392075;19;20023;-83
2023/03/25 04:35:51;;;;;;;0.28;0.28;;;;;;;27.24;35.17;97736.34;7391154;19;20039;-82
2023/03/25 04:38:18;;;;;;;0.20;0.20;;;;;;;27.31;35.17;97732.38;7392302;19;20483;-82
2023/03/25 04:40:45;;;;;;;0.35;0.35;;;;;;;27.39;34.97;97732.78;7390658;19;20018;-82
2023/03/25 04:43:13;;;;;;;0.45;0.45;;;;;;;27.21;35.09;97742.59;7393641;19;20006;-82
2023/03/25 04:45:47;;;;;;;0.35;0.30;;;;;;;27.25;35.01;97745.63;7391636;19;20014;-82
2023/03/25 04:48:24;;;;;;;1.90;0.70;;;;;;;27.25;34.95;97754.19;7393018;19;20010;-82
2023/03/25 04:50:51;;;;;;;0.10;0.10;;;;;;;27.17;34.87;97748.09;7393475;19;20101;-83
2023/03/25 04:53:17;;;;;;;1.05;0.73;;;;;;;27.00;34.74;97753.06;7393554;19;20019;-82
2023/03/25 04:55:46;;;;;;;0.10;0.10;;;;;;;26.90;35.00;97752.53;7390008;19;20018;-82
2023/03/25 04:58:16;;;;;;;0.20;0.13;;;;;;;26.93;34.62;97754.13;7392414;19;20022;-83
2023/03/25 05:00:45;;;;;;;0.10;0.10;;;;;;;26.79;34.89;97764.84;7393132;19;20022;-81
2023/03/25 05:03:12;;;;;;;1.17;0.30;;;;;;;27.02;34.84;97758.13;7393843;19;20010;-81
2023/03/25 05:05:38;;;;;;;1.40;0.52;;;;;;;27.28;34.82;97764.38;7393456;19;20014;-82
2023/03/25 05:08:04;;;;;;;0.17;0.17;;;;;;;27.31;34.37;97768.81;7390830;19;20022;-84
2023/03/25 05:10:30;;;;;;;2.35;0.65;;;;;;;27.27;34.70;97780.03;7391913;19;20019;-82
2023/03/25 05:12:58;;;;;;;0.55;0.28;;;;;;;27.08;34.69;97780.53;7393103;19;20015;-83
2023/03/25 05:15:25;;;;;;;8.98;1.70;;;;;;;27.03;34.66;97786.03;7392678;19;20026;-81
2023/03/25 05:17:51;;;;;;;0.40;0.40;;;;;;;26.60;34.64;97781.69;7391573;19;20033;-82
2023/03/25 05:20:17;;;;;;;0.22;0.22;;;;;;;26.93;34.57;97779.09;7389992;19;20010;-82
2023/03/25 05:22:44;;;;;;;3.38;1.05;;;;;;;26.77;35.18;97792.56;7391092;19;20011;-82
2023/03/25 05:25:10;;;;;;;0.10;0.10;;;;;;;26.96;34.90;97795.69;7389212;19;20022;-81
2023/03/25 05:27:37;;;;;;;0.30;0.30;;;;;;;27.07;34.56;97784.78;7388101;19;20020;-82
2023/03/25 05:30:06;;;;;;;0.10;0.10;;;;;;;27.01;34.34;97794.53;7391653;19;20060;-81
2023/03/25 05:32:32;;;;;;;0.80;0.50;;;;;;;26.90;34.44;97801.13;7392160;19;20044;-81
2023/03/25 05:34:59;;;;;;;0.20;0.20;;;;;;;26.98;34.10;97801.50;7394369;19;20053;-82
2023/03/25 05:37:26;;;;;;;0.30;0.30;;;;;;;27.13;34.66;97805.06;7395817;19;20022;-81
2023/03/25 05:39:52;;;;;;;0.75;0.63;;;;;;;27.07;34.15;97811.25;7391742;19;20018;-81
2023/03/25 05:42:21;;;;;;;4.15;0.47;;;;;;;27.04;34.26;97810.41;7391630;19;20025;-82
2023/03/25 05:44:52;;;;;;;0.10;0.10;;;;;;;27.14;34.48;97812.28;7391545;19;20021;-82
2023/03/25 05:47:22;;;;;;;0.17;0.17;;;;;;;26.97;34.67;97817.19;7388162;19;20010;-82
2023/03/25 05:49:50;;;;;;;0.10;0.10;;;;;;;27.02;34.51;97830.31;7390128;19;20022;-82
2023/03/25 05:52:18;;;;;;;0.28;0.28;;;;;;;27.11;34.53;97827.84;7390031;19;20367;-82
2023/03/25 05:54:49;;;;;;;0.20;0.20;;;;;;;26.81;35.01;97839.22;7392258;19;20010;-81
2023/03/25 05:57:15;;;;;;;;;;;;;;;26.88;35.19;97848.84;7389666;19;20014;-81
2023/03/25 05:59:41;;;;;;;0.10;0.10;;;;;;;26.77;35.19;97856.16;7390969;19;19915;-81
2023/03/25 06:02:12;;;;;;;0.20;0.20;;;;;;;26.69;35.15;97855.72;7393557;19;20353;-81
2023/03/25 06:04:40;;;;;;;0.55;0.55;;;;;;;26.87;35.55;97873.06;7389875;19;20078;-81
2023/03/25 06:07:12;;;;;;;0.20;0.20;;;;;;;27.11;34.65;97874.31;7392426;19;20026;-81
2023/03/25 06:09:45;;;;;;;3.63;0.43;;;;;;;27.06;35.06;97881.19;7387892;19;20014;-82
2023/03/25 06:12:13;;;;;;;0.20;0.20;;;;;;;27.29;34.81;97885.91;7390392;19;20010;-81
2023/03/25 06:14:41;;;;;;;0.10;0.10;;;;;;;27.34;35.05;97893.28;7391640;19;20021;-81
2023/03/25 06:17:09;;;;;;;0.40;0.40;;;;;;;26.89;35.26;97896.78;7389269;19;20027;-81
2023/03/25 06:19:39;;;;;;;0.20;0.20;;;;;;;26.98;35.14;97892.94;7388874;19;20637;-81
2023/03/25 06:22:08;;;;;;;0.13;0.13;;;;;;;27.00;35.12;97901.66;7388855;19;20089;-81
2023/03/25 06:24:38;;;;;;;0.10;0.10;;;;;;;27.08;35.25;97906.28;7390764;19;20017;-81
2023/03/25 06:27:06;;;;;;;0.57;0.43;;;;;;;26.98;35.39;97907.22;7388584;19;20053;-81
2023/03/25 06:29:35;;;;;;;0.13;0.13;;;;;;;27.06;35.00;97921.19;7391808;19;20100;-81
2023/03/25 06:32:03;;;;;;;0.17;0.17;;;;;;;27.11;34.97;97927.88;7395794;19;20006;-81
2023/03/25 06:34:31;;;;;;;0.10;0.10;;;;;;;26.94;35.15;97932.75;7398101;19;20023;-81
2023/03/25 06:36:58;;;;;;;0.20;0.20;;;;;;;26.84;35.19;97935.09;7400669;19;20016;-81
2023/03/25 06:39:25;;;;;;;0.15;0.15;;;;;;;27.42;34.74;97930.88;7394803;19;20043;-81
2023/03/25 06:41:54;;;;;;;0.10;0.10;;;;;;;27.04;35.43;97947.56;7395453;19;20010;-81
2023/03/25 06:44:30;;;;;;;0.20;0.20;;;;;;;27.42;34.93;97950.91;7395897;19;20018;-81
2023/03/25 06:47:15;;;;;;;0.10;0.10;;;;;;;27.56;34.74;97955.22;7394124;19;20011;-81
2023/03/25 06:49:43;;;;;;;0.20;0.20;;;;;;;27.55;34.77;97956.59;7397258;19;20014;-82
2023/03/25 06:52:10;;;;;;;0.20;0.20;;;;;;;27.79;34.59;97954.19;7394689;19;20010;-81
2023/03/25 06:54:37;;;;;;;4.38;1.65;;;;;;;27.82;34.35;97964.38;7397023;19;20423;-81
2023/03/25 06:57:04;;;;;;;0.20;0.20;;;;;;;28.01;34.24;97960.28;7394511;19;20082;-81
2023/03/25 06:59:30;;;;;;;0.10;0.10;;;;;;;27.97;33.88;97975.16;7395875;19;20018;-81
2023/03/25 07:01:57;;;;;;;0.30;0.30;;;;;;;27.96;34.47;97984.34;7397208;19;20010;-81
2023/03/25 07:04:24;;;;;;;0.75;0.35;;;;;;;28.07;34.19;97984.22;7395121;19;20018;-81
2023/03/25 07:06:50;;;;;;;0.20;0.20;;;;;;;28.05;34.21;97992.69;7396243;19;20026;-81
2023/03/25 07:09:16;;;;;;;0.47;0.47;;;;;;;28.14;34.44;97999.56;7392340;19;20014;-81
2023/03/25 07:11:42;;;;;;;0.10;0.10;;;;;;;28.27;34.10;98002.34;7394390;19;20029;-81
2023/03/25 07:14:09;;;;;;;0.40;0.20;;;;;;;28.26;34.20;98005.88;7395464;19;20029;-81
2023/03/25 07:16:35;;;;;;;0.55;0.55;;;;;;;27.95;34.26;98005.75;7394570;19;20019;-81
2023/03/25 07:19:01;;;;;;;1.00;0.63;;;;;;;27.96;34.12;98007.97;7395677;19;20022;-81
2023/03/25 07:21:27;;;;;;;0.10;0.10;;;;;;;28.12;34.39;98014.50;7394419;19;20691;-81
2023/03/25 07:23:54;;;;;;;0.20;0.20;;;;;;;27.49;34.40;98015.59;7394496;19;20073;-81
2023/03/25 07:26:20;;;;;;;0.20;0.20;;;;;;;27.65;34.32;98022.16;7392638;19;20018;-81
2023/03/25 07:28:46;;;;;;;0.20;0.20;;;;;;;28.10;34.54;98034.47;7392975;19;20102;-81
2023/03/25 07:31:15;;;;;;;5.15;0.47;;;;;;;28.03;34.19;98038.41;7394821;19;20018;-81
2023/03/25 07:33:41;;;;;;;0.30;0.30;;;;;;;28.09;34.23;98040.84;7393843;19;20363;-81
2023/03/25 07:36:10;;;;;;;0.10;0.10;;;;;;;28.26;34.23;98045.97;7395779;19;20014;-81
2023/03/25 07:38:36;;;;;;;0.30;0.30;;;;;;;28.46;33.82;98050.53;7394336;19;20585;-82
2023/03/25 07:41:10;;;;;;;0.30;0.20;;;;;;;28.54;33.94;98053.03;7394274;19;20025;-81
2023/03/25 07:43:39;;;;;;;0.20;0.20;;;;;;;28.51;33.99;98057.94;7397115;19;20080;-81
2023/03/25 07:46:31;;;;;;;1.73;0.30;;;;;;;27.89;34.47;98069.16;7396822;19;20357;-81
2023/03/25 07:48:57;;;;;;;0.10;0.10;;;;;;;27.60;34.55;98069.84;7393741;19;20021;-81
2023/03/25 07:51:23;;;;;;;3.20;0.22;;;;;;;28.43;34.24;98076.84;7394315;19;20007;-82
2023/03/25 07:53:49;;;;;;;0.38;0.38;;;;;;;28.50;34.00;98082.22;7392719;19;20051;-81
2023/03/25 07:56:16;;;;;;;0.20;0.20;;;;;;;28.46;33.72;98084.16;7398165;19;20014;-82
2023/03/25 07:58:43;;;;;;;0.10;0.10;;;;;;;28.47;33.66;98083.53;7392165;19;20021;-81
2023/03/25 08:01:09;;;;;;;0.30;0.30;;;;;;;28.35;33.82;98100.09;7393612;19;20010;-81
2023/03/25 08:03:38;;;;;;;6.07;0.50;;;;;;;28.25;34.17;98096.00;7393689;19;20019;-81
2023/03/25 08:06:05;;;;;;;0.10;0.10;;;;;;;28.27;34.16;98099.72;7395364;19;20483;-81
2023/03/25 08:08:31;;;;;;;0.10;0.10;;;;;;;28.51;34.23;98105.88;7394385;19;20019;-81
2023/03/25 08:10:58;;;;;;;0.10;0.10;;;;;;;28.67;34.05;98108.81;7392885;19;20392;-81
2023/03/25 08:13:24;;;;;;;0.60;0.60;;;;;;;28.79;33.77;98115.13;7394355;19;20017;-81
2023/03/25 08:15:51;;;;;;;0.20;0.10;;;;;;;28.94;33.88;98109.41;7392563;19;20006;-82
2023/03/25 08:18:17;;;;;;;0.43;0.25;;;;;;;29.01;33.97;98121.91;7394010;19;20031;-81
2023/03/25 08:20:44;;;;;;;0.25;0.20;;;;;;;28.83;33.75;98113.19;7393256;19;20020;-82
2023/03/25 08:23:11;;;;;;;0.10;0.10;;;;;;;28.41;34.36;98119.72;7393667;19;20019;-82
2023/03/25 08:25:39;;;;;;;0.20;0.10;;;;;;;28.27;35.12;98122.63;7391190;19;20010;-81
2023/03/25 08:28:06;;;;;;;0.25;0.22;;;;;;;27.88;35.76;98127.75;7391106;19;20033;-81
2023/03/25 08:30:37;;;;;;;0.75;0.35;;;;;;;28.40;34.90;98130.44;7390571;19;20022;-81
2023/03/25 08:33:06;;;;;;;0.82;0.30;;;;;;;28.98;34.71;98144.00;7391104;19;20589;-82
2023/03/25 08:35:34;;;;;;;0.65;0.45;;;;;;;29.11;34.78;98142.41;7394471;19;20020;-82
2023/03/25 08:38:03;;;;;;;0.75;0.52;;;;;;;28.81;34.78;98138.88;7392942;19;20022;-81
2023/03/25 08:40:34;;;;;;;0.57;0.45;;;;;;;28.96;34.43;98154.63;7391069;19;20031;-81
2023/03/25 08:43:03;;;;;;;0.32;0.10;;;;;;;28.88;34.42;98157.09;7393003;19;20018;-81
2023/03/25 08:45:31;;;;;;;0.20;0.20;;;;;;;29.05;34.55;98156.47;7392779;19;20018;-81
2023/03/25 08:47:57;;;;;;;0.15;0.10;;;;;;;29.17;33.98;98160.69;7389037;19;20597;-82
2023/03/25 08:50:23;;;;;;;0.60;0.10;;;;;;;29.14;34.77;98169.81;7389717;19;20017;-82
2023/03/25 08:52:52;;;;;;;0.10;0.10;;;;;;;28.99;34.73;98173.41;7389936;19;20022;-81
2023/03/25 08:55:18;;;;;;;0.17;0.10;;;;;;;28.84;34.83;98176.97;7389955;19;20011;-81
2023/03/25 08:57:44;;;;;;;0.75;0.38;;;;;;;28.69;34.60;98180.53;7391819;19;20474;-82
2023/03/25 09:00:15;;;;;;;0.20;0.20;;;;;;;28.91;34.38;98190.94;7392595;19;20038;-81
2023/03/25 09:02:42;;;;;;;;;;;;;;;29.16;34.93;98193.63;7397430;19;20021;-82
2023/03/25 09:05:09;;;;;;;0.10;0.10;;;;;;;29.06;34.63;98193.09;7389497;19;19974;-81
2023/03/25 09:07:36;;;;;;;0.20;0.10;;;;;;;28.94;34.87;98197.50;7391376;19;20010;-81
2023/03/25 09:10:04;;;;;;;0.10;0.10;;;;;;;28.91;35.04;98199.53;7390164;19;20014;-82
2023/03/25 09:12:30;;;;;;;0.10;0.10;;;;;;;28.98;35.07;98200.56;7390206;19;20484;-82
2023/03/25 09:14:56;;;;;;;2.85;0.43;;;;;;;29.17;35.36;98215.16;7394507;19;20014;-81
2023/03/25 09:17:23;;;;;;;1.13;0.93;;;;;;;28.98;35.27;98203.44;7390429;19;20120;-81
2023/03/25 09:19:49;;;;;;;0.10;0.10;;;;;;;28.77;35.62;98203.84;7391450;19;20015;-81
2023/03/25 09:22:15;;;;;;;0.30;0.20;;;;;;;28.87;35.63;98210.09;7394431;19;20024;-81
2023/03/25 09:24:41;;;;;;;0.20;0.17;;;;;;;29.01;35.95;98216.50;7392487;19;20026;-82
2023/03/25 09:27:08;;;;;;;0.10;0.10;;;;;;;29.01;35.72;98216.50;7387628;19;20022;-81
2023/03/25 09:29:35;;;;;;;0.50;0.30;;;;;;;28.90;35.95;98226.00;7391490;19;20014;-81
2023/03/25 09:32:01;;;;;;;3.50;0.43;;;;;;;29.02;35.82;98215.84;7390412;19;20015;-81
2023/03/25 09:34:27;;;;;;;0.10;0.10;;;;;;;28.98;35.90;98217.78;7391149;19;20070;-82
2023/03/25 09:36:54;;;;;;;0.10;0.10;;;;;;;29.19;35.62;98221.00;7392500;19;20560;-81
2023/03/25 09:39:20;;;;;;;0.20;0.13;;;;;;;29.60;36.45;98225.75;7389665;19;20026;-82
2023/03/25 09:41:52;;;;;;;0.13;0.13;;;;;;;29.52;36.52;98231.13;7390687;19;20018;-81
2023/03/25 09:44:55;;;;;;;0.32;0.32;;;;;;;29.20;36.44;98233.22;7392316;19;20014;-83
2023/03/25 09:47:24;;;;;;;0.10;0.10;;;;;;;29.49;36.11;98241.78;7387429;19;20022;-82
2023/03/25 09:49:56;;;;;;;0.10;0.10;;;;;;;29.19;35.75;98243.22;7389639;19;20086;-81
2023/03/25 09:52:27;;;;;;;0.50;0.50;;;;;;;28.91;35.71;98256.88;7389543;19;20019;-80
2023/03/25 09:55:03;;;;;;;;;;;;;;;29.06;35.64;98269.78;7392841;19;20082;-83
2023/03/25 09:57:32;;;;;;;0.10;0.10;;;;;;;29.25;36.12;98269.31;7388749;19;19915;-82
2023/03/25 10:00:02;;;;;;;0.10;0.10;;;;;;;29.44;36.02;98283.13;7389088;19;20031;-83
2023/03/25 10:02:41;;;;;;;0.10;0.10;;;;;;;29.62;35.88;98275.38;7389627;19;20018;-83
2023/03/25 10:05:30;;;;;;;0.43;0.40;;;;;;;29.95;35.90;98283.38;7392520;19;20086;-84
2023/03/25 10:08:04;;;;;;;0.30;0.30;;;;;;;30.05;35.99;98280.22;7395761;19;20057;-83
2023/03/25 10:10:33;;;;;;;0.15;0.15;;;;;;;30.26;36.09;98282.59;7396693;19;20078;-82
2023/03/25 10:13:25;;;;;;;0.15;0.15;;;;;;;30.28;34.62;98291.28;7396886;19;20011;-83
2023/03/25 10:16:11;;;;;;;0.73;0.57;;;;;;;30.12;34.20;98281.97;7398804;19;20388;-83
2023/03/25 10:19:04;;;;;;;0.22;0.10;;;;;;;30.21;34.69;98286.69;7398117;19;20082;-82
2023/03/25 10:21:38;;;;;;;0.15;0.08;;;;;;;30.40;33.89;98286.88;7397910;19;20018;-85
2023/03/25 10:24:04;;;;;;;0.10;0.05;;;;;;;30.53;33.93;98296.75;7398619;19;20018;-83
2023/03/25 10:26:44;;;;;;;5.32;0.50;;;;;;;30.62;34.03;98305.06;7395549;19;20018;-84
2023/03/25 10:29:16;;;;;;;1.73;0.20;;;;;;;30.29;33.59;98312.88;7398566;19;20015;-82
2023/03/25 10:31:51;;;;;;;0.40;0.20;;;;;;;30.57;33.42;98311.28;7397608;19;20019;-84
2023/03/25 10:34:22;;;;;;;1.42;0.45;;;;;;;30.83;33.47;98308.78;7397436;19;20027;-83
2023/03/25 10:36:59;;;;;;;;;;;;;;;31.18;33.18;98309.59;7402525;19;20022;-82
2023/03/25 10:39:32;;;;;;;0.63;0.28;;;;;;;31.03;33.53;98316.19;7397209;19;19935;-82
2023/03/25 10:42:11;;;;;;;4.47;0.30;;;;;;;31.06;33.04;98320.59;7397074;19;20014;-83
2023/03/25 10:44:37;;;;;;;0.70;0.30;;;;;;;31.05;32.33;98330.63;7397355;19;20031;-83
2023/03/25 10:47:10;;;;;;;10.60;0.60;;;;;;;30.76;32.74;98333.66;7393868;19;20017;-83
2023/03/25 10:49:40;;;;;;;1.27;0.30;;;;;;;30.80;32.08;98321.63;7396972;19;20074;-81
2023/03/25 10:52:07;;;;;;;0.77;0.57;;;;;;;30.58;31.95;98342.25;7399469;19;20030;-83
2023/03/25 10:54:37;;;;;;;1.40;0.68;;;;;;;30.38;32.44;98357.84;7397118;19;20017;-82
2023/03/25 10:57:18;;;;;;;2.28;0.47;;;;;;;30.31;32.57;98353.97;7395225;19;20025;-83
2023/03/25 10:59:59;;;;;;;5.75;1.40;;;;;;;30.15;32.36;98361.81;7395967;19;20639;-82
2023/03/25 11:02:27;;;;;;;7.45;1.17;;;;;;;30.41;32.08;98379.53;7397720;19;20017;-81
2023/03/25 11:04:57;;;;;;;2.10;0.80;;;;;;;30.23;32.60;98370.06;7394941;19;20019;-82
2023/03/25 11:07:33;;;;;;;0.90;0.60;;;;;;;30.25;32.76;98379.53;7397923;19;20411;-81
2023/03/25 11:10:20;;;;;;;3.60;1.48;;;;;;;30.22;32.52;98383.69;7393778;19;20011;-82
2023/03/25 11:12:50;;;;;;;0.30;0.30;;;;;;;30.13;33.00;98383.94;7394239;19;20035;-81
2023/03/25 11:15:23;;;;;;;0.47;0.30;;;;;;;29.97;32.66;98398.31;7392177;19;20388;-83
2023/03/25 11:18:04;;;;;;;3.15;1.20;;;;;;;29.83;32.76;98404.13;7393900;19;20010;-83
2023/03/25 11:20:46;;;;;;;1.25;0.57;;;;;;;29.91;32.66;98410.25;7395687;19;20018;-82
2023/03/25 11:23:25;;;;;;;0.10;0.10;;;;;;;29.65;33.15;98408.22;7395226;19;20042;-82
2023/03/25 11:25:54;;;;;;;0.30;0.20;;;;;;;30.11;32.36;98415.44;7394536;19;20019;-81
2023/03/25 11:28:35;;;;;;;0.75;0.30;;;;;;;30.68;32.23;98425.31;7392534;19;20043;-81
2023/03/25 11:31:08;;;;;;;;;;;;;;;30.64;32.09;98428.00;7397663;19;20010;-83
2023/03/25 11:33:35;;;;;;;0.63;0.25;;;;;;;30.40;32.51;98444.16;7395474;19;19922;-83
2023/03/25 11:36:15;;;;;;;0.38;0.30;;;;;;;30.41;32.62;98443.50;7396094;19;20015;-84
2023/03/25 11:38:46;;;;;;;5.60;0.52;;;;;;;30.38;32.22;98444.06;7394389;19;20022;-84
2023/03/25 11:41:13;;;;;;;0.52;0.30;;;;;;;30.74;32.13;98445.69;7396822;19;20011;-83
2023/03/25 11:43:40;;;;;;;0.10;0.10;;;;;;;30.18;33.11;98445.94;7396848;19;20043;-84
2023/03/25 11:46:15;;;;;;;0.20;0.20;;;;;;;29.96;32.88;98446.38;7395439;19;20085;-83
2023/03/25 11:48:45;;;;;;;0.22;0.22;;;;;;;29.88;32.22;98448.13;7395888;19;20013;-83
2023/03/25 11:51:31;;;;;;;0.63;0.10;;;;;;;29.95;32.33;98450.63;7395648;19;20465;-84
2023/03/25 11:54:01;;;;;;;0.10;0.10;;;;;;;29.09;33.56;98460.59;7395912;19;20084;-84